Time;durP1;ratioP1;P1;durP2;ratioP2;P2;SDS_P1;SDS_P2;PMS_P1;PMS_P2;Temp;Humidity;BMP_temperature;BMP_pressure;BME280_temperature;BME280_humidity;BME280_pressure;Samples;Min_cycle;Max_cycle;Signal;HPM_P1;HPM_P2
2023/12/19 00:00:10;;;;;;;22.60;11.88;;;;;;;;;;5023427;28;20038;-59
2023/12/19 00:02:35;;;;;;;18.95;9.35;;;;;;;;;;5025848;28;20040;-57
2023/12/19 00:05:01;;;;;;;15.50;8.65;;;;;;;;;;5026844;28;20041;-57
2023/12/19 00:07:29;;;;;;;21.50;10.52;;;;;;;;;;5032062;28;20040;-58
2023/12/19 00:09:54;;;;;;;19.27;10.43;;;;;;;;;;5029600;28;20044;-59
2023/12/19 00:12:20;;;;;;;16.60;8.70;;;;;;;;;;5023234;28;20124;-58
2023/12/19 00:14:45;;;;;;;23.15;10.15;;;;;;;;;;5031219;28;20113;-57
2023/12/19 00:17:10;;;;;;;20.00;9.23;;;;;;;;;;5030304;28;20431;-58
2023/12/19 00:19:36;;;;;;;19.23;9.20;;;;;;;;;;5031185;28;20030;-57
2023/12/19 00:22:02;;;;;;;21.42;10.98;;;;;;;;;;5020429;28;20485;-53
2023/12/19 00:24:27;;;;;;;23.40;12.35;;;;;;;;;;5012060;28;20030;-57
2023/12/19 00:26:53;;;;;;;27.27;12.40;;;;;;;;;;5012196;28;20642;-58
2023/12/19 00:29:18;;;;;;;20.13;10.43;;;;;;;;;;5031699;28;20068;-56
2023/12/19 00:31:44;;;;;;;14.30;7.22;;;;;;;;;;5030198;28;20088;-55
2023/12/19 00:34:10;;;;;;;23.55;12.00;;;;;;;;;;5031792;28;20030;-56
2023/12/19 00:36:36;;;;;;;14.82;8.38;;;;;;;;;;5030784;28;20029;-57
2023/12/19 00:39:04;;;;;;;18.40;10.18;;;;;;;;;;5030719;28;20049;-54
2023/12/19 00:41:29;;;;;;;25.75;12.20;;;;;;;;;;5026803;28;20109;-57
2023/12/19 00:43:55;;;;;;;29.38;14.07;;;;;;;;;;5012923;28;20381;-56
2023/12/19 00:46:20;;;;;;;22.48;10.15;;;;;;;;;;5031266;28;20080;-55
2023/12/19 00:48:46;;;;;;;31.95;12.95;;;;;;;;;;5030413;28;20030;-54
2023/12/19 00:51:11;;;;;;;26.08;13.48;;;;;;;;;;5030909;28;20453;-54
2023/12/19 00:53:37;;;;;;;20.92;10.85;;;;;;;;;;5030780;28;20387;-57
2023/12/19 00:56:07;;;;;;;28.00;13.88;;;;;;;;;;5031520;28;20037;-57
2023/12/19 00:58:33;;;;;;;28.13;13.40;;;;;;;;;;5031051;28;20041;-55
2023/12/19 01:00:58;;;;;;;22.95;12.30;;;;;;;;;;5028530;28;20029;-57
2023/12/19 01:03:23;;;;;;;18.33;9.38;;;;;;;;;;5031023;28;20083;-55
2023/12/19 01:05:49;;;;;;;26.17;11.77;;;;;;;;;;5030517;28;20124;-56
2023/12/19 01:08:14;;;;;;;22.60;11.65;;;;;;;;;;5031049;28;20040;-54
2023/12/19 01:10:39;;;;;;;29.73;13.43;;;;;;;;;;5031445;28;20029;-57
2023/12/19 01:13:05;;;;;;;19.17;10.02;;;;;;;;;;5034699;28;20044;-55
2023/12/19 01:15:30;;;;;;;22.58;10.60;;;;;;;;;;5027400;28;20460;-56
2023/12/19 01:17:56;;;;;;;26.23;12.43;;;;;;;;;;5021847;28;20467;-52
2023/12/19 01:20:21;;;;;;;26.42;13.18;;;;;;;;;;5015073;28;20054;-56
2023/12/19 01:22:46;;;;;;;23.83;11.18;;;;;;;;;;5014914;28;20428;-55
2023/12/19 01:25:12;;;;;;;30.20;13.85;;;;;;;;;;5031610;28;20044;-58
2023/12/19 01:27:37;;;;;;;27.95;13.35;;;;;;;;;;5023236;28;20549;-57
2023/12/19 01:30:03;;;;;;;35.75;15.98;;;;;;;;;;5050571;28;20044;-56
2023/12/19 01:32:28;;;;;;;33.20;15.77;;;;;;;;;;5028011;28;20116;-56
2023/12/19 01:34:54;;;;;;;34.15;16.45;;;;;;;;;;5048879;28;20115;-56
2023/12/19 01:37:19;;;;;;;30.35;13.80;;;;;;;;;;5053546;28;20494;-57
2023/12/19 01:39:44;;;;;;;37.17;15.43;;;;;;;;;;5042520;28;20123;-56
2023/12/19 01:42:10;;;;;;;20.85;10.07;;;;;;;;;;5052357;28;20052;-57
2023/12/19 01:44:35;;;;;;;27.45;13.75;;;;;;;;;;5053325;28;20028;-56
2023/12/19 01:47:01;;;;;;;21.27;11.18;;;;;;;;;;5048314;28;20025;-57
2023/12/19 01:49:27;;;;;;;29.73;14.80;;;;;;;;;;5054604;28;20086;-57
2023/12/19 01:51:52;;;;;;;29.45;14.30;;;;;;;;;;5046566;28;20052;-56
2023/12/19 01:54:19;;;;;;;24.50;12.02;;;;;;;;;;5034694;28;20029;-57
2023/12/19 01:56:45;;;;;;;20.85;10.85;;;;;;;;;;5049061;28;20033;-56
2023/12/19 01:59:12;;;;;;;29.45;13.75;;;;;;;;;;5048860;28;20030;-57
2023/12/19 02:01:38;;;;;;;29.85;13.90;;;;;;;;;;5048549;28;20040;-56
2023/12/19 02:04:04;;;;;;;22.50;10.95;;;;;;;;;;5053769;28;20036;-58
2023/12/19 02:06:33;;;;;;;27.65;13.93;;;;;;;;;;5047905;28;20033;-58
2023/12/19 02:08:59;;;;;;;19.70;10.77;;;;;;;;;;5050321;28;20041;-57
2023/12/19 02:11:24;;;;;;;22.40;10.60;;;;;;;;;;5021940;28;20083;-58
2023/12/19 02:13:49;;;;;;;25.45;12.73;;;;;;;;;;5051169;28;20067;-58
2023/12/19 02:16:15;;;;;;;17.88;8.07;;;;;;;;;;5051973;28;20041;-57
2023/12/19 02:18:40;;;;;;;24.48;12.80;;;;;;;;;;5048033;28;20404;-58
2023/12/19 02:21:06;;;;;;;15.10;8.60;;;;;;;;;;5053131;28;20102;-55
2023/12/19 02:23:31;;;;;;;24.83;11.93;;;;;;;;;;5052066;28;20364;-55
2023/12/19 02:25:57;;;;;;;17.77;9.10;;;;;;;;;;5032817;28;20075;-58
2023/12/19 02:28:23;;;;;;;19.65;10.20;;;;;;;;;;5048743;28;20036;-58
2023/12/19 02:30:48;;;;;;;22.67;11.75;;;;;;;;;;5038212;28;20401;-58
2023/12/19 02:33:14;;;;;;;17.75;9.25;;;;;;;;;;5038931;28;20033;-57
2023/12/19 02:35:39;;;;;;;18.80;9.70;;;;;;;;;;5043661;28;20534;-59
2023/12/19 02:38:04;;;;;;;19.88;10.20;;;;;;;;;;5029425;28;20029;-57
2023/12/19 02:40:30;;;;;;;25.73;13.88;;;;;;;;;;5027044;28;20390;-56
2023/12/19 02:42:55;;;;;;;24.70;12.23;;;;;;;;;;5048796;28;20032;-57
2023/12/19 02:45:21;;;;;;;24.35;12.00;;;;;;;;;;5047005;28;20029;-58
2023/12/19 02:47:46;;;;;;;27.85;13.40;;;;;;;;;;5048627;28;20036;-58
2023/12/19 02:50:12;;;;;;;26.77;13.05;;;;;;;;;;5053580;28;20103;-57
2023/12/19 02:52:37;;;;;;;28.23;14.60;;;;;;;;;;5050819;28;20032;-56
2023/12/19 02:55:04;;;;;;;19.90;10.32;;;;;;;;;;5046569;28;20040;-57
2023/12/19 02:57:29;;;;;;;30.80;11.85;;;;;;;;;;5048929;28;20040;-59
2023/12/19 02:59:55;;;;;;;20.08;9.05;;;;;;;;;;5050238;28;20037;-58
2023/12/19 03:02:20;;;;;;;25.20;13.05;;;;;;;;;;5048149;28;20036;-58
2023/12/19 03:04:46;;;;;;;28.10;13.75;;;;;;;;;;5047449;28;20033;-58
2023/12/19 03:07:11;;;;;;;24.60;12.90;;;;;;;;;;5035564;28;20037;-57
2023/12/19 03:09:36;;;;;;;26.20;14.38;;;;;;;;;;5049739;28;20036;-54
2023/12/19 03:12:07;;;;;;;19.30;9.43;;;;;;;;;;5030615;28;20029;-58
2023/12/19 03:14:34;;;;;;;25.25;13.20;;;;;;;;;;5042712;28;20040;-57
2023/12/19 03:17:03;;;;;;;22.88;11.73;;;;;;;;;;5043050;28;20495;-56
2023/12/19 03:19:29;;;;;;;24.70;11.82;;;;;;;;;;5032664;28;20067;-56
2023/12/19 03:21:55;;;;;;;24.27;10.70;;;;;;;;;;5047444;28;20132;-52
2023/12/19 03:24:21;;;;;;;16.70;8.52;;;;;;;;;;5049736;28;20112;-57
2023/12/19 03:26:46;;;;;;;27.27;11.73;;;;;;;;;;5050879;28;20116;-59
2023/12/19 03:29:12;;;;;;;23.83;11.55;;;;;;;;;;5044534;28;20425;-58
2023/12/19 03:31:37;;;;;;;24.50;12.27;;;;;;;;;;5042104;28;20040;-59
2023/12/19 03:34:03;;;;;;;25.35;11.70;;;;;;;;;;5012449;28;20040;-58
2023/12/19 03:36:29;;;;;;;27.00;12.45;;;;;;;;;;5028050;28;20038;-57
2023/12/19 03:38:54;;;;;;;21.38;10.15;;;;;;;;;;5031704;28;20411;-57
2023/12/19 03:41:20;;;;;;;26.30;12.35;;;;;;;;;;5032498;28;20056;-58
2023/12/19 03:43:45;;;;;;;38.58;16.23;;;;;;;;;;5031530;28;20068;-59
2023/12/19 03:46:10;;;;;;;42.75;17.67;;;;;;;;;;5034966;28;20028;-58
2023/12/19 03:48:36;;;;;;;30.70;13.25;;;;;;;;;;5049692;28;20033;-56
2023/12/19 03:51:02;;;;;;;24.13;11.52;;;;;;;;;;5049931;28;20036;-58
2023/12/19 03:53:28;;;;;;;33.67;13.43;;;;;;;;;;5047516;28;20028;-58
2023/12/19 03:55:54;;;;;;;38.88;15.98;;;;;;;;;;5050180;28;20048;-54
2023/12/19 03:58:20;;;;;;;42.75;17.55;;;;;;;;;;5048989;28;20063;-55
2023/12/19 04:00:45;;;;;;;53.05;18.67;;;;;;;;;;5050327;28;20472;-58
2023/12/19 04:03:11;;;;;;;35.30;15.65;;;;;;;;;;5040077;28;20417;-59
2023/12/19 04:05:36;;;;;;;47.22;18.90;;;;;;;;;;5031714;28;20064;-57
2023/12/19 04:08:02;;;;;;;48.03;18.73;;;;;;;;;;5037701;28;20087;-57
2023/12/19 04:10:27;;;;;;;44.05;15.77;;;;;;;;;;5031451;28;20086;-56
2023/12/19 04:12:53;;;;;;;44.17;19.08;;;;;;;;;;5034957;28;20036;-58
2023/12/19 04:15:18;;;;;;;38.40;16.35;;;;;;;;;;5037735;28;20029;-58
2023/12/19 04:17:43;;;;;;;41.53;18.02;;;;;;;;;;5045703;28;20029;-57
2023/12/19 04:20:10;;;;;;;43.80;17.35;;;;;;;;;;5036946;28;20051;-58
2023/12/19 04:22:36;;;;;;;42.65;18.65;;;;;;;;;;5050542;28;20128;-56
2023/12/19 04:25:01;;;;;;;44.40;17.25;;;;;;;;;;5050810;28;20021;-55
2023/12/19 04:27:27;;;;;;;37.45;13.93;;;;;;;;;;5046212;28;20171;-53
2023/12/19 04:29:55;;;;;;;44.42;17.70;;;;;;;;;;5043464;28;20029;-52
2023/12/19 04:32:20;;;;;;;46.35;17.45;;;;;;;;;;5050160;28;20029;-55
2023/12/19 04:34:45;;;;;;;37.53;15.45;;;;;;;;;;5046605;28;20060;-52
2023/12/19 04:37:11;;;;;;;34.72;16.23;;;;;;;;;;5044258;28;20455;-57
2023/12/19 04:39:36;;;;;;;41.63;17.13;;;;;;;;;;5049831;28;20033;-53
2023/12/19 04:42:06;;;;;;;38.28;16.00;;;;;;;;;;5026480;28;20037;-53
2023/12/19 04:44:35;;;;;;;34.67;14.27;;;;;;;;;;5017690;28;20033;-54
2023/12/19 04:47:00;;;;;;;27.63;12.13;;;;;;;;;;5019995;28;20064;-53
2023/12/19 04:49:25;;;;;;;20.33;9.82;;;;;;;;;;5011525;28;20433;-56
2023/12/19 04:51:54;;;;;;;25.20;11.55;;;;;;;;;;5020894;28;20032;-58
2023/12/19 04:54:19;;;;;;;20.02;10.65;;;;;;;;;;5042102;28;20029;-56
2023/12/19 04:56:45;;;;;;;18.80;9.23;;;;;;;;;;5035802;28;20047;-58
2023/12/19 04:59:10;;;;;;;24.52;11.68;;;;;;;;;;5042616;28;20033;-56
2023/12/19 05:01:40;;;;;;;18.30;8.50;;;;;;;;;;5046148;28;20029;-57
2023/12/19 05:04:09;;;;;;;25.98;12.82;;;;;;;;;;5041623;28;20029;-56
2023/12/19 05:06:34;;;;;;;22.25;10.57;;;;;;;;;;5039031;28;20485;-59
2023/12/19 05:08:59;;;;;;;20.67;10.02;;;;;;;;;;5050272;28;20120;-59
2023/12/19 05:11:25;;;;;;;21.80;10.35;;;;;;;;;;5036952;28;20383;-58
2023/12/19 05:13:50;;;;;;;21.50;10.30;;;;;;;;;;5050802;28;20074;-59
2023/12/19 05:16:18;;;;;;;21.33;10.68;;;;;;;;;;5042309;28;20034;-58
2023/12/19 05:18:44;;;;;;;15.13;8.05;;;;;;;;;;5032095;28;20082;-58
2023/12/19 05:21:11;;;;;;;22.15;10.77;;;;;;;;;;5033585;28;20041;-58
2023/12/19 05:23:38;;;;;;;22.83;11.60;;;;;;;;;;5046660;28;20063;-59
2023/12/19 05:26:04;;;;;;;19.80;9.45;;;;;;;;;;5041490;28;20033;-59
2023/12/19 05:28:30;;;;;;;14.73;7.38;;;;;;;;;;5031152;28;20030;-58
2023/12/19 05:30:56;;;;;;;20.35;10.13;;;;;;;;;;5017048;28;20131;-59
2023/12/19 05:33:28;;;;;;;19.60;9.85;;;;;;;;;;5049561;28;20037;-59
2023/12/19 05:35:54;;;;;;;15.77;7.70;;;;;;;;;;5040588;28;20042;-60
2023/12/19 05:38:20;;;;;;;14.38;6.90;;;;;;;;;;5051027;28;20083;-59
2023/12/19 05:40:46;;;;;;;15.77;8.02;;;;;;;;;;5047374;28;20025;-60
2023/12/19 05:43:13;;;;;;;20.17;9.40;;;;;;;;;;5048703;28;20444;-59
2023/12/19 05:45:38;;;;;;;16.67;7.95;;;;;;;;;;5044601;28;20048;-60
2023/12/19 05:48:04;;;;;;;15.02;7.97;;;;;;;;;;5042823;28;20040;-60
2023/12/19 05:50:29;;;;;;;19.48;10.05;;;;;;;;;;5042829;28;20052;-60
2023/12/19 05:52:55;;;;;;;19.17;9.68;;;;;;;;;;5042697;28;20490;-59
2023/12/19 05:55:21;;;;;;;14.65;7.20;;;;;;;;;;5045573;28;20037;-59
2023/12/19 05:57:46;;;;;;;17.92;9.25;;;;;;;;;;5045990;28;20104;-57
2023/12/19 06:00:12;;;;;;;15.32;7.20;;;;;;;;;;5045096;28;20037;-59
2023/12/19 06:02:38;;;;;;;22.02;10.00;;;;;;;;;;5048712;28;20471;-58
2023/12/19 06:05:07;;;;;;;14.35;7.53;;;;;;;;;;5047269;28;20084;-57
2023/12/19 06:07:35;;;;;;;19.23;9.25;;;;;;;;;;5043651;28;20041;-58
2023/12/19 06:10:01;;;;;;;13.27;7.50;;;;;;;;;;5038082;28;20037;-59
2023/12/19 06:12:27;;;;;;;16.08;8.77;;;;;;;;;;5051101;28;20036;-59
2023/12/19 06:14:52;;;;;;;19.13;8.65;;;;;;;;;;5031226;28;20400;-59
2023/12/19 06:17:17;;;;;;;15.68;9.13;;;;;;;;;;5030302;28;20029;-58
2023/12/19 06:19:43;;;;;;;23.85;11.30;;;;;;;;;;5041797;28;20121;-59
2023/12/19 06:22:10;;;;;;;16.63;8.40;;;;;;;;;;5048590;28;20032;-58
2023/12/19 06:24:35;;;;;;;22.35;10.32;;;;;;;;;;5049540;28;20032;-59
2023/12/19 06:27:01;;;;;;;14.52;7.53;;;;;;;;;;5048385;28;20032;-56
2023/12/19 06:29:26;;;;;;;25.55;12.15;;;;;;;;;;5028844;28;20520;-57
2023/12/19 06:31:51;;;;;;;27.85;13.35;;;;;;;;;;5042255;28;20128;-56
2023/12/19 06:34:17;;;;;;;19.17;9.68;;;;;;;;;;5046578;28;20041;-57
2023/12/19 06:36:44;;;;;;;22.48;11.57;;;;;;;;;;5028146;28;20033;-57
2023/12/19 06:39:09;;;;;;;25.50;12.68;;;;;;;;;;5043162;28;20028;-58
2023/12/19 06:41:36;;;;;;;20.27;11.52;;;;;;;;;;5052415;28;20028;-58
2023/12/19 06:44:01;;;;;;;18.92;9.88;;;;;;;;;;5052967;28;20033;-56
2023/12/19 06:46:26;;;;;;;22.23;10.32;;;;;;;;;;5044638;28;20025;-58
2023/12/19 06:48:52;;;;;;;31.95;13.50;;;;;;;;;;5026991;28;20456;-58
2023/12/19 06:51:25;;;;;;;32.58;14.88;;;;;;;;;;5032561;28;20037;-56
2023/12/19 06:53:54;;;;;;;21.58;10.45;;;;;;;;;;5032573;28;20061;-57
2023/12/19 06:56:20;;;;;;;28.38;13.63;;;;;;;;;;5028766;28;20033;-58
2023/12/19 06:58:45;;;;;;;29.27;13.10;;;;;;;;;;5017316;28;20063;-58
2023/12/19 07:01:11;;;;;;;22.42;11.02;;;;;;;;;;5013529;28;20137;-58
2023/12/19 07:03:36;;;;;;;27.67;14.50;;;;;;;;;;5015377;28;20037;-58
2023/12/19 07:06:02;;;;;;;19.23;9.27;;;;;;;;;;5032682;28;20068;-58
2023/12/19 07:08:31;;;;;;;27.08;13.23;;;;;;;;;;5032093;28;20037;-58
2023/12/19 07:10:57;;;;;;;29.25;13.50;;;;;;;;;;5013656;28;20053;-58
2023/12/19 07:13:22;;;;;;;33.92;15.25;;;;;;;;;;5013201;28;20500;-59
2023/12/19 07:15:48;;;;;;;28.60;14.15;;;;;;;;;;5013892;28;20074;-58
2023/12/19 07:18:13;;;;;;;26.60;11.80;;;;;;;;;;5012339;28;20053;-56
2023/12/19 07:20:39;;;;;;;20.33;10.32;;;;;;;;;;5013017;28;20487;-58
2023/12/19 07:23:04;;;;;;;31.02;12.57;;;;;;;;;;5012572;28;20460;-57
2023/12/19 07:25:30;;;;;;;24.50;12.48;;;;;;;;;;5033053;28;20026;-59
2023/12/19 07:27:55;;;;;;;28.95;13.75;;;;;;;;;;5033034;28;20029;-55
2023/12/19 07:30:21;;;;;;;25.13;11.75;;;;;;;;;;5032104;28;20116;-56
2023/12/19 07:32:50;;;;;;;30.17;13.55;;;;;;;;;;5030548;28;20041;-57
2023/12/19 07:35:19;;;;;;;20.65;10.40;;;;;;;;;;5032147;28;20038;-58
2023/12/19 07:37:44;;;;;;;31.00;13.82;;;;;;;;;;5032903;28;20075;-58
2023/12/19 07:40:11;;;;;;;28.80;15.07;;;;;;;;;;5031832;28;20450;-57
2023/12/19 07:42:36;;;;;;;31.77;15.60;;;;;;;;;;5030123;28;20116;-55
2023/12/19 07:45:02;;;;;;;22.33;12.25;;;;;;;;;;5031789;28;20551;-57
2023/12/19 07:47:28;;;;;;;27.73;11.73;;;;;;;;;;5032399;28;20092;-58
2023/12/19 07:49:53;;;;;;;25.75;12.85;;;;;;;;;;5025068;28;20362;-58
2023/12/19 07:52:19;;;;;;;22.35;12.63;;;;;;;;;;5013174;28;20033;-56
2023/12/19 07:54:44;;;;;;;24.80;11.60;;;;;;;;;;5018641;28;20172;-62
2023/12/19 07:57:10;;;;;;;29.73;13.68;;;;;;;;;;5022442;28;20427;-61
2023/12/19 07:59:35;;;;;;;27.85;13.95;;;;;;;;;;5014125;28;20034;-62
2023/12/19 08:02:01;;;;;;;25.95;12.52;;;;;;;;;;5011808;28;20041;-61
2023/12/19 08:04:26;;;;;;;27.38;12.90;;;;;;;;;;5015105;28;20036;-63
2023/12/19 08:06:52;;;;;;;21.38;11.57;;;;;;;;;;5029400;28;20029;-62
2023/12/19 08:09:17;;;;;;;16.17;9.50;;;;;;;;;;5031387;28;20186;-61
2023/12/19 08:11:43;;;;;;;20.38;12.02;;;;;;;;;;5031952;28;20037;-62
2023/12/19 08:14:08;;;;;;;27.30;13.70;;;;;;;;;;5028991;28;20133;-61
2023/12/19 08:16:33;;;;;;;25.23;13.98;;;;;;;;;;5012171;28;20053;-62
2023/12/19 08:18:59;;;;;;;32.70;16.45;;;;;;;;;;5011825;28;20115;-61
2023/12/19 08:21:25;;;;;;;33.40;16.33;;;;;;;;;;5015670;28;20539;-62
2023/12/19 08:23:51;;;;;;;29.08;13.77;;;;;;;;;;5027243;28;20388;-64
2023/12/19 08:26:17;;;;;;;30.25;14.98;;;;;;;;;;5013533;28;20030;-64
2023/12/19 08:28:44;;;;;;;29.05;14.55;;;;;;;;;;5024900;28;20132;-62
2023/12/19 08:31:09;;;;;;;20.85;12.23;;;;;;;;;;5025043;28;20037;-62
2023/12/19 08:33:35;;;;;;;33.88;16.70;;;;;;;;;;5031247;28;20108;-62
2023/12/19 08:36:00;;;;;;;21.42;10.20;;;;;;;;;;5011932;28;20030;-61
2023/12/19 08:38:26;;;;;;;29.48;14.20;;;;;;;;;;5024331;28;20032;-65
2023/12/19 08:40:51;;;;;;;22.73;12.02;;;;;;;;;;5030193;28;20369;-65
2023/12/19 08:43:19;;;;;;;26.98;14.82;;;;;;;;;;5030869;28;20155;-65
2023/12/19 08:45:45;;;;;;;23.13;11.98;;;;;;;;;;5031230;28;20080;-64
2023/12/19 08:48:12;;;;;;;16.92;10.45;;;;;;;;;;5010931;28;20034;-64
2023/12/19 08:50:37;;;;;;;21.23;12.75;;;;;;;;;;5024294;28;20392;-65
2023/12/19 08:53:04;;;;;;;27.92;14.65;;;;;;;;;;5030587;28;20063;-61
2023/12/19 08:55:30;;;;;;;22.90;11.85;;;;;;;;;;5030523;28;20037;-64
2023/12/19 08:57:55;;;;;;;27.33;13.65;;;;;;;;;;5027671;28;20491;-64
2023/12/19 09:00:22;;;;;;;23.58;11.00;;;;;;;;;;5030561;28;20029;-64
2023/12/19 09:02:48;;;;;;;29.88;15.60;;;;;;;;;;5031352;28;20468;-65
2023/12/19 09:05:15;;;;;;;26.80;14.18;;;;;;;;;;5028501;28;20112;-65
2023/12/19 09:07:42;;;;;;;26.40;13.50;;;;;;;;;;5030922;28;20060;-65
2023/12/19 09:10:09;;;;;;;17.30;9.85;;;;;;;;;;5025714;28;20037;-62
2023/12/19 09:12:36;;;;;;;19.83;10.88;;;;;;;;;;5028326;28;20037;-63
2023/12/19 09:15:02;;;;;;;18.23;10.20;;;;;;;;;;5012077;28;20536;-62
2023/12/19 09:17:28;;;;;;;24.48;12.35;;;;;;;;;;5016512;28;20530;-63
2023/12/19 09:19:55;;;;;;;23.52;11.90;;;;;;;;;;5029414;28;20034;-62
2023/12/19 09:22:20;;;;;;;22.60;11.68;;;;;;;;;;5023109;28;20087;-62
2023/12/19 09:24:46;;;;;;;23.35;14.32;;;;;;;;;;5014050;28;20034;-63
2023/12/19 09:27:11;;;;;;;17.70;10.30;;;;;;;;;;5013782;28;20060;-61
2023/12/19 09:29:36;;;;;;;23.38;12.63;;;;;;;;;;5029744;28;20025;-62
2023/12/19 09:32:05;;;;;;;22.58;13.20;;;;;;;;;;5031514;28;20036;-62
2023/12/19 09:34:30;;;;;;;18.35;9.57;;;;;;;;;;5034604;28;20468;-62
2023/12/19 09:36:56;;;;;;;23.30;13.10;;;;;;;;;;5029166;28;20037;-63
2023/12/19 09:39:23;;;;;;;24.30;12.88;;;;;;;;;;5021347;28;20368;-62
2023/12/19 09:41:49;;;;;;;24.33;13.30;;;;;;;;;;5034912;28;20052;-63
2023/12/19 09:44:14;;;;;;;24.27;14.23;;;;;;;;;;5034288;28;20082;-62
2023/12/19 09:46:41;;;;;;;24.30;12.50;;;;;;;;;;5034709;28;20123;-62
2023/12/19 09:49:09;;;;;;;23.98;12.88;;;;;;;;;;5033530;28;20064;-62
2023/12/19 09:51:38;;;;;;;25.95;13.50;;;;;;;;;;5033494;28;20037;-62
2023/12/19 09:54:03;;;;;;;26.08;13.93;;;;;;;;;;5034654;28;20491;-62
2023/12/19 09:56:29;;;;;;;22.48;12.32;;;;;;;;;;5033795;28;20041;-63
2023/12/19 09:58:57;;;;;;;24.30;13.20;;;;;;;;;;5034430;28;20080;-62
2023/12/19 10:01:22;;;;;;;30.63;15.68;;;;;;;;;;5033737;28;20026;-63
2023/12/19 10:03:49;;;;;;;26.58;14.35;;;;;;;;;;5024380;28;20230;-62
2023/12/19 10:06:17;;;;;;;16.42;8.93;;;;;;;;;;5025776;28;20531;-62
2023/12/19 10:08:44;;;;;;;14.68;8.45;;;;;;;;;;5034371;28;20029;-62
2023/12/19 10:11:16;;;;;;;27.85;13.52;;;;;;;;;;5033563;28;20457;-61
2023/12/19 10:13:41;;;;;;;24.50;12.48;;;;;;;;;;5021865;28;20076;-62
2023/12/19 10:16:13;;;;;;;20.42;11.52;;;;;;;;;;5012759;28;20448;-62
2023/12/19 10:18:39;;;;;;;29.17;13.40;;;;;;;;;;5020277;28;20035;-62
2023/12/19 10:21:05;;;;;;;20.80;10.55;;;;;;;;;;5033951;28;20088;-62
2023/12/19 10:23:33;;;;;;;23.23;12.95;;;;;;;;;;5033311;28;20061;-62
2023/12/19 10:25:59;;;;;;;24.92;12.48;;;;;;;;;;5029658;28;20564;-62
2023/12/19 10:28:24;;;;;;;21.70;11.45;;;;;;;;;;5017527;28;20084;-61
2023/12/19 10:30:49;;;;;;;21.55;12.63;;;;;;;;;;5031894;28;20064;-62
2023/12/19 10:33:15;;;;;;;21.52;11.85;;;;;;;;;;5033103;28;20041;-62
2023/12/19 10:35:44;;;;;;;21.35;11.70;;;;;;;;;;5034159;28;20040;-63
2023/12/19 10:38:10;;;;;;;16.20;9.10;;;;;;;;;;5032613;28;20450;-61
2023/12/19 10:40:36;;;;;;;21.52;11.32;;;;;;;;;;5018439;28;20105;-62
2023/12/19 10:43:02;;;;;;;22.92;12.13;;;;;;;;;;5032531;28;20038;-62
2023/12/19 10:45:28;;;;;;;20.42;11.43;;;;;;;;;;5032637;28;20546;-62
2023/12/19 10:47:53;;;;;;;17.73;9.68;;;;;;;;;;5033866;28;20033;-62
2023/12/19 10:50:19;;;;;;;18.90;11.00;;;;;;;;;;5033018;28;20037;-62
2023/12/19 10:52:49;;;;;;;14.50;8.10;;;;;;;;;;5032346;28;20033;-64
2023/12/19 10:55:21;;;;;;;13.60;8.35;;;;;;;;;;5032101;28;20407;-61
2023/12/19 10:57:49;;;;;;;16.15;10.02;;;;;;;;;;5016483;28;20042;-63
2023/12/19 11:00:21;;;;;;;8.98;5.90;;;;;;;;;;5026887;28;20033;-63
2023/12/19 11:03:16;;;;;;;12.30;6.95;;;;;;;;;;5020462;28;20350;-62
2023/12/19 11:05:45;;;;;;;17.75;8.32;;;;;;;;;;5028333;28;20025;-64
2023/12/19 11:08:15;;;;;;;12.45;7.55;;;;;;;;;;5032697;28;20036;-61
2023/12/19 11:10:48;;;;;;;13.63;8.17;;;;;;;;;;5033204;28;20029;-62
2023/12/19 11:13:14;;;;;;;13.10;8.10;;;;;;;;;;5030440;28;20029;-63
2023/12/19 11:15:49;;;;;;;10.70;5.85;;;;;;;;;;5032970;28;20408;-63
2023/12/19 11:18:30;;;;;;;15.15;7.95;;;;;;;;;;5032127;28;20029;-63
2023/12/19 11:21:01;;;;;;;11.93;6.70;;;;;;;;;;5031487;28;20050;-64
2023/12/19 11:23:57;;;;;;;18.50;8.32;;;;;;;;;;5031239;28;20033;-64
2023/12/19 11:26:39;;;;;;;11.77;7.43;;;;;;;;;;5032174;28;20064;-64
2023/12/19 11:29:04;;;;;;;9.48;5.10;;;;;;;;;;5033148;28;20484;-64
2023/12/19 11:31:35;;;;;;;14.40;8.05;;;;;;;;;;5030177;28;20035;-64
2023/12/19 11:34:23;;;;;;;9.73;5.65;;;;;;;;;;5032527;28;20491;-66
2023/12/19 11:37:03;;;;;;;12.93;7.93;;;;;;;;;;5012689;28;20033;-65
2023/12/19 11:39:33;;;;;;;10.95;5.25;;;;;;;;;;5012079;28;20042;-64
2023/12/19 11:41:59;;;;;;;12.75;7.10;;;;;;;;;;5013064;28;20030;-64
2023/12/19 11:44:37;;;;;;;7.70;4.80;;;;;;;;;;5012101;28;20056;-63
2023/12/19 11:47:18;;;;;;;14.90;7.05;;;;;;;;;;5018859;28;20053;-64
2023/12/19 11:49:45;;;;;;;6.90;4.75;;;;;;;;;;5012686;28;20034;-64
2023/12/19 11:52:29;;;;;;;10.25;6.22;;;;;;;;;;5012545;28;20037;-61
2023/12/19 11:54:54;;;;;;;8.77;5.28;;;;;;;;;;5013761;28;20112;-63
2023/12/19 11:57:21;;;;;;;9.25;5.38;;;;;;;;;;5031954;28;20113;-63
2023/12/19 11:59:50;;;;;;;9.75;5.43;;;;;;;;;;5032160;28;20025;-63
2023/12/19 12:02:29;;;;;;;13.45;6.60;;;;;;;;;;5031504;28;20030;-61
2023/12/19 12:05:16;;;;;;;8.40;5.50;;;;;;;;;;5022175;28;20041;-63
2023/12/19 12:07:47;;;;;;;11.32;5.70;;;;;;;;;;5012597;28;20032;-62
2023/12/19 12:10:18;;;;;;;9.50;6.18;;;;;;;;;;5013779;28;20068;-61
2023/12/19 12:12:44;;;;;;;9.90;6.00;;;;;;;;;;5031842;28;20391;-63
2023/12/19 12:15:14;;;;;;;8.70;5.22;;;;;;;;;;5031945;28;20434;-63
2023/12/19 12:17:40;;;;;;;9.18;5.63;;;;;;;;;;5032287;28;20037;-63
2023/12/19 12:20:06;;;;;;;8.13;5.32;;;;;;;;;;5031416;28;20050;-63
2023/12/19 12:22:32;;;;;;;11.55;7.07;;;;;;;;;;5019356;28;20041;-62
2023/12/19 12:25:01;;;;;;;13.38;6.75;;;;;;;;;;5026426;28;20036;-62
2023/12/19 12:27:30;;;;;;;12.63;7.75;;;;;;;;;;5017833;28;20069;-64
2023/12/19 12:29:57;;;;;;;11.93;7.25;;;;;;;;;;5011975;28;20031;-64
2023/12/19 12:32:26;;;;;;;12.27;7.63;;;;;;;;;;5017194;28;20036;-63
2023/12/19 12:34:55;;;;;;;9.25;5.35;;;;;;;;;;5018213;28;20045;-64
2023/12/19 12:37:21;;;;;;;8.80;5.78;;;;;;;;;;5015120;28;20080;-62
2023/12/19 12:39:47;;;;;;;8.77;5.78;;;;;;;;;;5023958;28;20029;-63
2023/12/19 12:42:19;;;;;;;9.60;5.80;;;;;;;;;;5029786;28;20160;-63
2023/12/19 12:44:44;;;;;;;9.65;5.00;;;;;;;;;;5020403;28;20443;-63
2023/12/19 12:47:09;;;;;;;10.90;6.13;;;;;;;;;;5029571;28;20491;-63
2023/12/19 12:49:35;;;;;;;13.10;6.88;;;;;;;;;;5030940;28;20095;-64
2023/12/19 12:52:01;;;;;;;9.48;5.28;;;;;;;;;;5031710;28;20075;-62
2023/12/19 12:54:28;;;;;;;9.27;5.22;;;;;;;;;;5030570;28;20034;-61
2023/12/19 12:56:54;;;;;;;7.55;4.43;;;;;;;;;;5031811;28;20033;-62
2023/12/19 12:59:25;;;;;;;12.13;6.90;;;;;;;;;;5029534;28;20064;-61
2023/12/19 13:01:50;;;;;;;9.65;5.32;;;;;;;;;;5027709;28;20037;-61
2023/12/19 13:04:20;;;;;;;10.18;6.32;;;;;;;;;;5019833;28;20332;-61
2023/12/19 13:06:45;;;;;;;8.82;5.20;;;;;;;;;;5031304;28;20033;-61
2023/12/19 13:09:19;;;;;;;8.40;5.68;;;;;;;;;;5031425;28;20033;-61
2023/12/19 13:11:47;;;;;;;9.88;5.47;;;;;;;;;;5030805;28;20070;-61
2023/12/19 13:14:13;;;;;;;9.20;5.22;;;;;;;;;;5029976;28;20459;-63
2023/12/19 13:16:38;;;;;;;8.57;5.40;;;;;;;;;;5030164;28;20029;-63
2023/12/19 13:19:04;;;;;;;8.27;5.78;;;;;;;;;;5031572;28;20052;-61
2023/12/19 13:21:29;;;;;;;10.32;5.60;;;;;;;;;;5016234;28;20054;-63
2023/12/19 13:23:55;;;;;;;8.30;5.32;;;;;;;;;;5011205;28;20111;-62
2023/12/19 13:26:25;;;;;;;8.02;5.07;;;;;;;;;;5010532;28;20026;-62
2023/12/19 13:28:51;;;;;;;9.68;5.13;;;;;;;;;;5012095;28;20136;-62
2023/12/19 13:31:16;;;;;;;10.30;5.25;;;;;;;;;;5015332;28;20393;-62
2023/12/19 13:33:42;;;;;;;8.02;5.03;;;;;;;;;;5017524;28;20029;-63
2023/12/19 13:36:08;;;;;;;8.77;4.85;;;;;;;;;;5015874;28;20034;-64
2023/12/19 13:38:34;;;;;;;11.95;5.07;;;;;;;;;;5012545;28;20040;-63
2023/12/19 13:41:00;;;;;;;7.38;4.45;;;;;;;;;;5031344;28;20108;-63
2023/12/19 13:43:26;;;;;;;7.35;4.57;;;;;;;;;;5030231;28;20045;-63
2023/12/19 13:45:51;;;;;;;7.38;4.45;;;;;;;;;;5029883;28;20029;-63
2023/12/19 13:48:17;;;;;;;10.40;6.00;;;;;;;;;;5031169;28;20025;-61
2023/12/19 13:50:42;;;;;;;9.23;5.10;;;;;;;;;;5028541;28;20468;-61
2023/12/19 13:53:09;;;;;;;8.13;4.57;;;;;;;;;;5011293;28;20034;-61
2023/12/19 13:55:34;;;;;;;10.80;5.97;;;;;;;;;;5010529;28;20041;-63
2023/12/19 13:58:00;;;;;;;8.25;4.63;;;;;;;;;;5011515;28;20030;-62
2023/12/19 14:00:25;;;;;;;7.97;4.22;;;;;;;;;;5010110;28;20038;-62
2023/12/19 14:02:51;;;;;;;11.80;5.53;;;;;;;;;;5011977;28;20107;-62
2023/12/19 14:05:16;;;;;;;10.48;5.75;;;;;;;;;;5011251;28;20160;-62
2023/12/19 14:07:44;;;;;;;8.70;5.25;;;;;;;;;;5010625;28;20029;-62
2023/12/19 14:10:09;;;;;;;12.40;6.55;;;;;;;;;;5011616;28;20042;-62
2023/12/19 14:12:36;;;;;;;10.38;5.68;;;;;;;;;;5014128;28;20030;-61
2023/12/19 14:15:03;;;;;;;7.70;4.60;;;;;;;;;;5010718;28;20034;-63
2023/12/19 14:17:29;;;;;;;8.93;4.63;;;;;;;;;;5010632;28;20507;-60
2023/12/19 14:19:55;;;;;;;8.20;4.07;;;;;;;;;;5014297;28;20069;-58